Celle, Celle Air Base (ETHC)

NameCelle Air Base
CityCelle
CountryGermany
ICAOETHC
IATAZCN
Altitude39 m
CoordinatesGoogle Map
Live Air TrafficLiveATC.net
METARETHC 100747Z 07004KT 6000 SCT370 11/10 Q1023 WHT WHT BECMG BLU+
2018-10-10 07:47:00 Wind: East-Northeast (70°) 2.06 m/s - Visibility: 6000 m - Temperature: 11 °C - Dew point: 10 °C - Humidity: 93.6% - Pressure: 1023 hPa
Statistics

The table below shows the detailed information of all flights to/from Celle, Celle Air Base (ETHC).